Time;durP1;ratioP1;P1;durP2;ratioP2;P2;SDS_P1;SDS_P2;PMS_P1;PMS_P2;Temp;Humidity;BMP_temperature;BMP_pressure;BME280_temperature;BME280_humidity;BME280_pressure;Samples;Min_cycle;Max_cycle;Signal;HPM_P1;HPM_P2
2023/04/20 00:01:40;;;;;;;5.57;4.67;;;9.20;99.90;;;;;;5040874;28;20583;-66
2023/04/20 00:04:06;;;;;;;4.93;3.60;;;9.20;99.90;;;;;;5053347;28;20319;-65
2023/04/20 00:06:33;;;;;;;4.80;4.30;;;9.10;99.90;;;;;;5055438;28;20304;-66
2023/04/20 00:08:59;;;;;;;4.87;3.67;;;9.10;99.90;;;;;;5051120;28;20194;-68
2023/04/20 00:11:26;;;;;;;8.10;3.83;;;9.10;99.90;;;;;;5045115;28;20186;-66
2023/04/20 00:13:52;;;;;;;6.27;3.87;;;9.10;99.90;;;;;;5054901;28;20697;-66
2023/04/20 00:16:17;;;;;;;4.77;4.30;;;9.10;99.90;;;;;;5055310;28;20194;-66
2023/04/20 00:18:45;;;;;;;5.73;3.73;;;9.00;99.90;;;;;;5054880;28;20248;-66
2023/04/20 00:21:12;;;;;;;3.40;3.10;;;9.00;99.90;;;;;;5044861;28;20189;-66
2023/04/20 00:23:38;;;;;;;6.07;4.03;;;9.00;99.90;;;;;;5042450;28;20198;-66
2023/04/20 00:26:03;;;;;;;4.33;3.93;;;9.10;99.90;;;;;;5040898;28;20187;-67
2023/04/20 00:28:30;;;;;;;5.53;4.07;;;9.10;99.90;;;;;;5036842;28;20557;-66
2023/04/20 00:30:55;;;;;;;4.30;3.30;;;9.00;99.90;;;;;;5051101;28;20190;-66
2023/04/20 00:33:21;;;;;;;5.03;4.00;;;8.80;99.90;;;;;;5053610;28;20190;-68
2023/04/20 00:35:47;;;;;;;7.97;4.40;;;8.70;99.90;;;;;;5050937;28;20567;-67
2023/04/20 00:38:12;;;;;;;5.27;4.47;;;8.70;99.90;;;;;;5051405;28;20174;-67
2023/04/20 00:40:38;;;;;;;6.60;4.13;;;8.70;99.90;;;;;;5053885;28;20197;-66
2023/04/20 00:43:13;;;;;;;8.07;4.03;;;8.60;99.90;;;;;;5044014;28;20210;-66
2023/04/20 00:45:39;;;;;;;4.27;3.87;;;8.70;99.90;;;;;;5054456;28;20189;-67
2023/04/20 00:48:06;;;;;;;5.43;3.93;;;8.60;99.90;;;;;;5044561;28;20190;-66
2023/04/20 00:50:33;;;;;;;4.60;3.63;;;8.50;99.90;;;;;;5045796;28;20687;-66
2023/04/20 00:53:00;;;;;;;6.47;4.33;;;8.60;99.90;;;;;;5046387;28;20296;-66
2023/04/20 00:55:27;;;;;;;5.90;4.17;;;8.60;99.90;;;;;;5046663;28;20178;-66
2023/04/20 00:57:52;;;;;;;5.33;3.37;;;8.60;99.90;;;;;;5053307;28;20193;-67
2023/04/20 01:00:19;;;;;;;7.30;4.03;;;8.40;99.90;;;;;;5044064;28;20186;-68
2023/04/20 01:02:44;;;;;;;4.47;3.90;;;8.30;99.90;;;;;;5054212;28;20205;-68
2023/04/20 01:05:11;;;;;;;5.33;4.10;;;8.20;99.90;;;;;;5049396;28;20195;-66
2023/04/20 01:07:36;;;;;;;6.97;4.60;;;8.20;99.90;;;;;;5045206;28;20209;-67
2023/04/20 01:10:03;;;;;;;5.37;4.17;;;8.10;99.90;;;;;;5050423;28;20221;-66
2023/04/20 01:12:28;;;;;;;6.03;3.87;;;8.10;99.90;;;;;;5045295;28;20190;-66
2023/04/20 01:14:54;;;;;;;4.67;3.60;;;8.10;99.90;;;;;;5052856;28;20189;-66
2023/04/20 01:17:20;;;;;;;5.17;3.60;;;8.10;99.90;;;;;;5052651;28;20261;-66
2023/04/20 01:19:45;;;;;;;4.00;3.60;;;8.10;99.90;;;;;;5053387;28;20201;-67
2023/04/20 01:22:19;;;;;;;5.40;3.83;;;8.00;99.90;;;;;;5050693;28;20540;-66
2023/04/20 01:24:45;;;;;;;5.03;3.90;;;8.00;99.90;;;;;;5053553;28;20253;-67
2023/04/20 01:27:12;;;;;;;4.47;3.57;;;8.00;99.90;;;;;;5050068;28;20279;-66
2023/04/20 01:29:38;;;;;;;4.53;4.13;;;7.90;99.90;;;;;;5053371;28;20570;-67
2023/04/20 01:32:04;;;;;;;5.00;4.03;;;7.90;99.90;;;;;;5037825;28;20548;-66
2023/04/20 01:34:30;;;;;;;3.67;3.37;;;7.80;99.90;;;;;;5049849;28;20624;-66
2023/04/20 01:36:57;;;;;;;6.23;3.90;;;7.80;99.90;;;;;;5053470;28;20197;-66
2023/04/20 01:39:22;;;;;;;3.83;2.67;;;7.70;99.90;;;;;;5051543;28;20178;-67
2023/04/20 01:41:48;;;;;;;4.20;3.80;;;7.80;99.90;;;;;;5053689;28;20209;-66
2023/04/20 01:44:14;;;;;;;4.73;4.20;;;7.80;99.90;;;;;;5053046;28;20186;-66
2023/04/20 01:46:40;;;;;;;4.27;3.80;;;7.70;99.90;;;;;;5048476;28;20190;-67
2023/04/20 01:49:06;;;;;;;4.57;4.13;;;7.70;99.90;;;;;;5043710;28;20544;-65
2023/04/20 01:51:35;;;;;;;4.73;4.17;;;7.70;99.90;;;;;;5043260;28;20231;-66
2023/04/20 01:54:02;;;;;;;7.10;4.30;;;7.50;99.90;;;;;;5053236;28;20193;-66
2023/04/20 01:56:27;;;;;;;4.33;3.97;;;7.60;99.90;;;;;;5040232;28;20269;-67
2023/04/20 01:58:53;;;;;;;3.93;3.53;;;7.60;99.90;;;;;;5040706;28;20260;-67
2023/04/20 02:01:19;;;;;;;4.50;4.03;;;7.50;99.90;;;;;;5053074;28;20236;-66
2023/04/20 02:03:45;;;;;;;4.20;3.47;;;7.40;99.90;;;;;;5052769;28;20190;-68
2023/04/20 02:06:11;;;;;;;4.60;4.03;;;7.50;99.90;;;;;;5040242;28;20217;-66
2023/04/20 02:08:37;;;;;;;4.83;3.43;;;7.40;99.90;;;;;;5045120;28;20182;-68
2023/04/20 02:11:02;;;;;;;4.57;3.87;;;7.40;99.90;;;;;;5052597;28;20265;-66
2023/04/20 02:13:28;;;;;;;5.13;3.50;;;7.30;99.90;;;;;;5051896;28;20190;-67
2023/04/20 02:15:54;;;;;;;3.80;3.43;;;7.30;99.90;;;;;;5052954;28;20194;-66
2023/04/20 02:18:20;;;;;;;8.97;3.70;;;7.30;99.90;;;;;;5047773;28;20233;-66
2023/04/20 02:20:46;;;;;;;8.17;3.97;;;7.20;99.90;;;;;;5040457;28;20195;-66
2023/04/20 02:23:11;;;;;;;3.00;2.80;;;7.30;99.90;;;;;;5049551;28;20217;-66
2023/04/20 02:25:37;;;;;;;4.53;4.10;;;7.30;99.90;;;;;;5040623;28;20197;-67
2023/04/20 02:28:03;;;;;;;3.97;3.27;;;7.20;99.90;;;;;;5047255;28;20197;-67
2023/04/20 02:30:29;;;;;;;5.90;3.63;;;7.20;99.90;;;;;;5042446;28;20269;-67
2023/04/20 02:32:55;;;;;;;4.73;3.77;;;7.10;99.90;;;;;;5041988;28;20277;-66
2023/04/20 02:35:21;;;;;;;4.27;3.43;;;7.20;99.90;;;;;;5052008;28;20657;-66
2023/04/20 02:37:47;;;;;;;4.67;3.27;;;7.20;99.90;;;;;;5048047;28;20522;-66
2023/04/20 02:40:13;;;;;;;4.77;3.33;;;7.20;99.90;;;;;;5052071;28;20193;-66
2023/04/20 02:42:39;;;;;;;3.67;3.23;;;7.20;99.90;;;;;;5042150;28;20214;-67
2023/04/20 02:45:05;;;;;;;3.27;2.97;;;7.10;99.90;;;;;;5052181;28;20204;-66
2023/04/20 02:47:31;;;;;;;6.73;3.93;;;7.10;99.90;;;;;;5045419;28;20197;-67
2023/04/20 02:49:56;;;;;;;8.47;3.47;;;7.10;99.90;;;;;;5047770;28;20479;-67
2023/04/20 02:52:22;;;;;;;5.00;3.23;;;7.20;99.90;;;;;;5042891;28;20216;-67
2023/04/20 02:54:48;;;;;;;3.37;3.17;;;7.10;99.90;;;;;;5038664;28;20548;-67
2023/04/20 02:57:14;;;;;;;3.73;3.17;;;7.10;99.90;;;;;;5038693;28;20245;-66
2023/04/20 02:59:39;;;;;;;4.77;3.23;;;6.90;99.90;;;;;;5041903;28;20194;-67
2023/04/20 03:02:05;;;;;;;3.90;3.57;;;6.90;99.90;;;;;;5043079;28;20221;-68
2023/04/20 03:04:31;;;;;;;4.23;3.57;;;6.90;99.90;;;;;;5051940;28;20247;-67
2023/04/20 03:06:57;;;;;;;5.27;3.27;;;6.90;99.90;;;;;;5051926;28;20194;-66
2023/04/20 03:09:24;;;;;;;5.33;3.70;;;6.90;99.90;;;;;;5047350;28;20186;-67
2023/04/20 03:11:50;;;;;;;5.67;3.60;;;6.90;99.90;;;;;;5051321;28;20247;-67
2023/04/20 03:14:16;;;;;;;3.67;3.23;;;6.90;99.90;;;;;;5051714;28;20198;-67
2023/04/20 03:16:42;;;;;;;3.23;2.90;;;6.80;99.90;;;;;;5052287;28;20260;-66
2023/04/20 03:19:07;;;;;;;3.43;3.23;;;6.90;99.90;;;;;;5048287;28;20273;-66
2023/04/20 03:21:33;;;;;;;11.60;4.13;;;6.80;99.90;;;;;;5040164;28;20576;-67
2023/04/20 03:23:59;;;;;;;3.40;3.10;;;6.90;99.90;;;;;;5045989;28;20198;-67
2023/04/20 03:26:25;;;;;;;4.53;3.40;;;6.90;99.90;;;;;;5051352;28;20265;-67
2023/04/20 03:28:51;;;;;;;3.60;3.30;;;6.80;99.90;;;;;;5046852;28;20316;-67
2023/04/20 03:31:17;;;;;;;5.67;3.37;;;6.70;99.90;;;;;;5049149;28;20185;-67
2023/04/20 03:33:42;;;;;;;5.47;4.13;;;6.80;99.90;;;;;;5044890;28;20718;-67
2023/04/20 03:36:10;;;;;;;4.43;3.33;;;6.70;99.90;;;;;;5041916;28;20201;-67
2023/04/20 03:38:35;;;;;;;3.63;3.30;;;6.70;99.90;;;;;;5053559;28;20655;-67
2023/04/20 03:41:01;;;;;;;3.87;3.40;;;6.60;99.90;;;;;;5055145;28;20182;-67
2023/04/20 03:43:27;;;;;;;5.37;4.00;;;6.70;99.90;;;;;;5050689;28;20214;-67
2023/04/20 03:45:52;;;;;;;4.70;3.17;;;6.70;99.90;;;;;;5036970;28;20596;-67
2023/04/20 03:48:18;;;;;;;4.83;4.13;;;6.60;99.90;;;;;;5048869;28;20488;-67
2023/04/20 03:50:44;;;;;;;7.87;3.33;;;6.70;99.90;;;;;;5053173;28;20520;-67
2023/04/20 03:53:09;;;;;;;4.27;3.30;;;6.80;99.90;;;;;;5049714;28;20288;-68
2023/04/20 03:55:35;;;;;;;3.87;3.50;;;6.80;99.90;;;;;;5050251;28;20190;-67
2023/04/20 03:58:01;;;;;;;4.00;3.00;;;6.90;99.90;;;;;;5053661;28;20192;-68
2023/04/20 04:00:26;;;;;;;6.87;3.73;;;6.80;99.90;;;;;;5051118;28;20194;-67
2023/04/20 04:02:52;;;;;;;3.03;2.70;;;6.90;99.90;;;;;;5047605;28;20202;-67
2023/04/20 04:05:18;;;;;;;4.90;3.40;;;6.90;99.90;;;;;;5042242;28;20260;-68
2023/04/20 04:07:43;;;;;;;4.43;3.97;;;6.90;99.90;;;;;;5040146;28;20670;-67
2023/04/20 04:10:09;;;;;;;5.60;4.10;;;6.90;99.90;;;;;;5076871;28;20294;-67
2023/04/20 04:12:35;;;;;;;5.83;3.23;;;7.00;99.90;;;;;;5052897;28;20196;-67
2023/04/20 04:15:01;;;;;;;5.00;3.87;;;6.80;99.90;;;;;;5049147;28;20323;-67
2023/04/20 04:17:27;;;;;;;5.70;3.97;;;6.80;99.90;;;;;;5053254;28;20231;-67
2023/04/20 04:19:53;;;;;;;5.33;3.87;;;6.70;99.90;;;;;;5052542;28;20186;-66
2023/04/20 04:22:18;;;;;;;5.43;3.60;;;6.60;99.90;;;;;;5053746;28;20259;-66
2023/04/20 04:24:44;;;;;;;5.93;3.27;;;6.70;99.90;;;;;;5052322;28;20502;-66
2023/04/20 04:27:13;;;;;;;4.47;3.20;;;6.80;99.90;;;;;;5041903;28;20190;-66
2023/04/20 04:29:40;;;;;;;5.03;4.03;;;6.90;99.90;;;;;;5053639;28;20221;-66
2023/04/20 04:32:06;;;;;;;4.50;3.30;;;7.10;99.90;;;;;;5054906;28;20209;-66
2023/04/20 04:34:33;;;;;;;3.33;3.03;;;7.10;99.90;;;;;;5048902;28;20193;-66
2023/04/20 04:37:00;;;;;;;3.50;3.20;;;7.20;99.90;;;;;;5048874;28;20602;-66
2023/04/20 04:39:26;;;;;;;4.00;3.47;;;7.10;99.90;;;;;;5045185;28;20182;-66
2023/04/20 04:41:52;;;;;;;5.73;3.63;;;7.10;99.90;;;;;;5049229;28;20199;-66
2023/04/20 04:44:18;;;;;;;4.63;2.93;;;7.30;99.90;;;;;;5047937;28;20186;-66
2023/04/20 04:46:46;;;;;;;6.00;2.97;;;7.10;99.90;;;;;;5052713;28;20182;-65
2023/04/20 04:49:12;;;;;;;3.83;3.40;;;7.00;99.90;;;;;;5052651;28;20673;-66
2023/04/20 04:51:37;;;;;;;7.97;4.00;;;7.00;99.90;;;;;;5052850;28;20545;-65
2023/04/20 04:54:03;;;;;;;5.27;3.43;;;7.00;99.90;;;;;;5051297;28;20639;-66
2023/04/20 04:56:29;;;;;;;6.17;3.00;;;7.10;99.90;;;;;;5050640;28;20191;-65
2023/04/20 04:58:55;;;;;;;4.50;3.20;;;7.30;99.90;;;;;;5043459;28;20228;-66
2023/04/20 05:01:21;;;;;;;3.57;3.27;;;7.30;99.90;;;;;;5053694;28;20220;-65
2023/04/20 05:03:46;;;;;;;3.07;2.87;;;7.40;99.90;;;;;;5052528;28;20190;-69
2023/04/20 05:06:12;;;;;;;8.07;3.63;;;7.40;99.90;;;;;;5052670;28;20267;-66
2023/04/20 05:08:38;;;;;;;6.57;3.43;;;7.30;99.90;;;;;;5052242;28;20186;-66
2023/04/20 05:11:03;;;;;;;4.50;3.83;;;7.10;99.90;;;;;;5053882;28;20662;-66
2023/04/20 05:13:29;;;;;;;4.63;3.43;;;7.10;99.90;;;;;;5048416;28;20282;-65
2023/04/20 05:15:55;;;;;;;7.63;4.30;;;7.30;99.90;;;;;;5053733;28;20186;-65
2023/04/20 05:18:21;;;;;;;5.47;4.17;;;7.40;99.90;;;;;;5053989;28;20226;-65
2023/04/20 05:20:46;;;;;;;5.83;4.07;;;7.30;99.90;;;;;;5052556;28;20182;-66
2023/04/20 05:23:12;;;;;;;3.00;2.80;;;7.20;99.90;;;;;;5047691;28;20263;-65
2023/04/20 05:25:38;;;;;;;4.67;3.57;;;7.30;99.90;;;;;;5053247;28;20190;-65
2023/04/20 05:28:04;;;;;;;5.07;4.50;;;7.50;99.90;;;;;;5053061;28;20212;-66
2023/04/20 05:30:30;;;;;;;4.47;3.63;;;7.70;99.90;;;;;;5052502;28;20190;-65
2023/04/20 05:32:55;;;;;;;5.30;4.03;;;7.80;99.90;;;;;;5052765;28;20243;-65
2023/04/20 05:35:21;;;;;;;3.60;3.03;;;7.80;99.90;;;;;;5053114;28;20194;-65
2023/04/20 05:37:47;;;;;;;4.13;3.40;;;8.00;99.90;;;;;;5045329;28;20278;-66
2023/04/20 05:40:14;;;;;;;4.53;3.23;;;8.10;99.90;;;;;;5048960;28;20236;-67
2023/04/20 05:42:40;;;;;;;10.77;4.10;;;8.10;99.90;;;;;;5048087;28;20232;-67
2023/04/20 05:45:06;;;;;;;3.50;3.20;;;8.10;99.90;;;;;;5046790;28;20186;-67
2023/04/20 05:47:32;;;;;;;7.10;4.13;;;8.10;99.90;;;;;;5049757;28;20187;-66
2023/04/20 05:49:58;;;;;;;5.73;3.80;;;8.10;99.90;;;;;;5051242;28;20198;-66
2023/04/20 05:52:23;;;;;;;8.77;4.70;;;8.30;99.90;;;;;;5048447;28;20186;-66
2023/04/20 05:54:49;;;;;;;6.07;3.53;;;8.10;99.90;;;;;;5048246;28;20585;-67
2023/04/20 05:57:15;;;;;;;4.67;4.20;;;8.00;99.90;;;;;;5052492;28;20635;-68
2023/04/20 05:59:41;;;;;;;5.03;3.80;;;8.00;99.90;;;;;;5053302;28;20643;-68
2023/04/20 06:02:07;;;;;;;4.27;3.60;;;8.00;99.90;;;;;;5052390;28;20221;-67
2023/04/20 06:04:32;;;;;;;4.90;4.10;;;7.90;99.90;;;;;;5043753;28;20580;-67
2023/04/20 06:06:59;;;;;;;5.37;4.13;;;7.90;99.90;;;;;;5052712;28;20190;-66
2023/04/20 06:09:25;;;;;;;5.23;4.33;;;7.80;99.90;;;;;;5049040;28;20194;-69
2023/04/20 06:11:50;;;;;;;4.03;3.63;;;7.80;99.90;;;;;;5048162;28;20201;-68
2023/04/20 06:14:16;;;;;;;4.47;3.23;;;7.80;99.90;;;;;;5052576;28;20189;-66
2023/04/20 06:16:42;;;;;;;4.17;3.77;;;7.90;99.90;;;;;;5048891;28;20225;-68
2023/04/20 06:19:07;;;;;;;4.50;3.53;;;8.00;99.90;;;;;;5041921;28;20190;-68
2023/04/20 06:21:34;;;;;;;6.87;4.57;;;8.00;99.90;;;;;;5051029;28;20218;-69
2023/04/20 06:23:59;;;;;;;8.93;5.37;;;7.90;99.90;;;;;;5050844;28;20522;-68
2023/04/20 06:26:25;;;;;;;3.00;2.80;;;8.00;99.90;;;;;;5051710;28;20182;-67
2023/04/20 06:28:52;;;;;;;4.13;3.80;;;8.10;99.90;;;;;;5046843;28;20656;-69
2023/04/20 06:31:18;;;;;;;6.47;4.53;;;8.00;99.90;;;;;;5050565;28;20219;-68
2023/04/20 06:33:44;;;;;;;5.10;3.67;;;7.90;99.90;;;;;;5056228;28;20190;-67
2023/04/20 06:36:10;;;;;;;7.60;4.50;;;8.00;99.90;;;;;;5052468;28;20190;-66
2023/04/20 06:38:35;;;;;;;5.13;3.70;;;8.10;99.90;;;;;;5051957;28;20193;-65
2023/04/20 06:41:01;;;;;;;6.77;4.40;;;8.20;99.90;;;;;;5053176;28;20233;-67
2023/04/20 06:43:29;;;;;;;5.97;4.70;;;7.90;99.90;;;;;;5042859;28;20206;-67
2023/04/20 06:45:55;;;;;;;6.87;4.87;;;7.90;99.90;;;;;;5044330;28;20272;-66
2023/04/20 06:48:21;;;;;;;7.53;5.20;;;7.80;99.90;;;;;;5050995;28;20210;-66
2023/04/20 06:50:50;;;;;;;4.87;4.33;;;7.80;99.90;;;;;;5051062;28;20639;-65
2023/04/20 06:53:16;;;;;;;6.63;4.57;;;7.90;99.90;;;;;;5050092;28;20208;-65
2023/04/20 06:55:42;;;;;;;5.30;4.53;;;8.10;99.90;;;;;;5051020;28;20625;-66
2023/04/20 06:58:07;;;;;;;7.53;4.80;;;8.10;99.90;;;;;;5041693;28;20209;-67
2023/04/20 07:00:33;;;;;;;7.50;4.40;;;8.00;99.90;;;;;;5042554;28;20585;-66
2023/04/20 07:02:59;;;;;;;7.70;5.07;;;7.90;99.90;;;;;;5052162;28;20563;-66
2023/04/20 07:05:27;;;;;;;7.47;5.97;;;8.00;99.90;;;;;;5052298;28;20228;-66
2023/04/20 07:07:53;;;;;;;6.77;5.20;;;8.00;99.90;;;;;;5042416;28;20269;-67
2023/04/20 07:10:19;;;;;;;6.07;4.33;;;8.00;99.90;;;;;;5050298;28;20289;-65
2023/04/20 07:12:45;;;;;;;9.07;5.03;;;7.80;99.90;;;;;;5052596;28;20296;-66
2023/04/20 07:15:11;;;;;;;7.63;5.20;;;7.80;99.90;;;;;;5052106;28;20642;-65
2023/04/20 07:17:37;;;;;;;9.00;5.37;;;8.00;99.90;;;;;;5051491;28;20236;-66
2023/04/20 07:20:07;;;;;;;7.63;5.63;;;8.10;99.90;;;;;;5045281;28;20198;-66
2023/04/20 07:22:37;;;;;;;6.17;5.00;;;7.90;99.90;;;;;;5052204;28;20734;-66
2023/04/20 07:25:04;;;;;;;10.43;5.57;;;7.90;99.90;;;;;;5051549;28;20603;-66
2023/04/20 07:27:34;;;;;;;7.23;5.00;;;7.90;99.90;;;;;;5046541;28;20218;-66
2023/04/20 07:29:59;;;;;;;5.27;4.27;;;7.90;99.90;;;;;;5053643;28;20980;-67
2023/04/20 07:32:25;;;;;;;5.30;4.80;;;7.90;99.90;;;;;;5039135;28;20194;-66
2023/04/20 07:34:51;;;;;;;8.60;4.97;;;7.80;99.90;;;;;;5055637;28;20178;-66
2023/04/20 07:37:16;;;;;;;6.67;4.97;;;7.80;99.90;;;;;;5055789;28;20190;-66
2023/04/20 07:39:42;;;;;;;10.90;5.13;;;7.80;99.90;;;;;;5034426;28;20276;-66
2023/04/20 07:42:08;;;;;;;8.00;4.90;;;7.90;99.90;;;;;;5048953;28;20209;-66
2023/04/20 07:44:34;;;;;;;5.37;4.60;;;7.80;99.90;;;;;;5042860;28;20194;-66
2023/04/20 07:47:01;;;;;;;5.70;4.73;;;7.90;99.90;;;;;;5044288;28;20277;-67
2023/04/20 07:49:27;;;;;;;6.03;4.57;;;7.90;99.90;;;;;;5056283;28;20182;-67
2023/04/20 07:51:53;;;;;;;8.70;5.20;;;8.00;99.90;;;;;;5042026;28;20196;-67
2023/04/20 07:54:19;;;;;;;5.80;5.30;;;7.90;99.90;;;;;;5049815;28;20224;-66
2023/04/20 07:56:45;;;;;;;5.53;5.03;;;8.20;99.90;;;;;;5040733;28;20270;-67
2023/04/20 07:59:10;;;;;;;7.47;4.40;;;8.10;99.90;;;;;;5051564;28;20264;-66
2023/04/20 08:01:36;;;;;;;7.70;4.73;;;8.10;99.90;;;;;;5046158;28;20214;-66
2023/04/20 08:04:02;;;;;;;9.87;4.93;;;8.10;99.90;;;;;;5050415;28;20268;-67
2023/04/20 08:06:28;;;;;;;8.77;7.57;;;8.20;99.90;;;;;;5045284;28;20194;-67
2023/04/20 08:08:53;;;;;;;5.00;4.53;;;8.20;99.90;;;;;;5050845;28;20204;-67
2023/04/20 08:11:20;;;;;;;8.47;4.53;;;8.30;99.90;;;;;;5049306;28;20631;-67
2023/04/20 08:13:46;;;;;;;6.80;4.70;;;8.30;99.90;;;;;;5055320;28;20273;-67
2023/04/20 08:16:12;;;;;;;7.37;5.10;;;8.40;99.90;;;;;;5046580;28;20269;-67
2023/04/20 08:18:37;;;;;;;8.53;5.83;;;8.50;99.90;;;;;;5044635;28;20329;-66
2023/04/20 08:21:03;;;;;;;6.53;5.20;;;8.80;99.90;;;;;;5052467;28;20186;-66
2023/04/20 08:23:29;;;;;;;7.10;4.30;;;9.10;99.90;;;;;;5054485;28;20571;-67
2023/04/20 08:25:55;;;;;;;7.73;5.10;;;8.90;99.90;;;;;;5054989;28;20278;-67
2023/04/20 08:28:21;;;;;;;7.83;4.43;;;8.70;99.90;;;;;;5055117;28;20190;-66
2023/04/20 08:30:47;;;;;;;8.30;5.20;;;8.60;99.90;;;;;;5054710;28;20194;-67
2023/04/20 08:33:13;;;;;;;9.67;5.10;;;8.50;99.90;;;;;;5054970;28;20197;-67
2023/04/20 08:35:38;;;;;;;5.63;4.53;;;9.00;99.90;;;;;;5054954;28;20190;-66
2023/04/20 08:38:04;;;;;;;7.50;5.33;;;9.40;99.90;;;;;;5055116;28;20552;-66
2023/04/20 08:40:30;;;;;;;18.30;7.17;;;9.90;99.90;;;;;;5054513;28;20665;-66
2023/04/20 08:42:58;;;;;;;4.77;4.27;;;9.80;99.90;;;;;;5054665;28;20638;-67
2023/04/20 08:45:25;;;;;;;7.87;5.27;;;9.60;99.90;;;;;;5054180;28;20186;-66
2023/04/20 08:47:52;;;;;;;8.03;4.63;;;9.60;99.90;;;;;;5037945;28;20186;-66
2023/04/20 08:50:19;;;;;;;4.83;4.23;;;10.00;99.90;;;;;;5050619;28;20187;-66
2023/04/20 08:52:44;;;;;;;8.57;5.40;;;10.10;99.90;;;;;;5041485;28;20179;-66
2023/04/20 08:55:17;;;;;;;9.77;4.90;;;9.90;99.90;;;;;;5053774;28;20201;-66
2023/04/20 08:57:43;;;;;;;5.20;4.47;;;9.80;99.90;;;;;;5053212;28;20197;-66
2023/04/20 09:00:10;;;;;;;5.53;4.63;;;9.80;99.90;;;;;;5046660;28;20467;-67
2023/04/20 09:02:46;;;;;;;6.83;4.63;;;9.80;99.90;;;;;;5052196;28;20583;-66
2023/04/20 09:05:12;;;;;;;9.97;5.33;;;9.40;99.90;;;;;;5041140;28;20266;-67
2023/04/20 09:07:38;;;;;;;6.67;4.97;;;9.20;99.90;;;;;;5053988;28;21639;-66
2023/04/20 09:10:04;;;;;;;8.13;5.17;;;9.30;99.90;;;;;;5054216;28;20279;-66
2023/04/20 09:12:40;;;;;;;6.53;5.27;;;9.60;99.90;;;;;;5054064;28;20201;-65
2023/04/20 09:15:06;;;;;;;8.17;6.47;;;9.40;99.90;;;;;;5047652;28;20216;-66
2023/04/20 09:17:34;;;;;;;7.73;5.53;;;9.30;99.90;;;;;;5053696;28;20222;-65
2023/04/20 09:20:01;;;;;;;6.03;5.37;;;9.40;99.90;;;;;;5048980;28;20216;-65
2023/04/20 09:22:36;;;;;;;9.97;5.57;;;9.50;99.90;;;;;;5049537;28;20209;-67
2023/04/20 09:25:31;;;;;;;12.40;6.00;;;9.40;99.90;;;;;;5045527;28;20197;-66
2023/04/20 09:28:01;;;;;;;7.47;5.77;;;9.40;99.90;;;;;;5038052;28;20589;-67
2023/04/20 09:30:44;;;;;;;9.47;5.87;;;9.50;99.90;;;;;;5054438;28;20200;-67
2023/04/20 09:33:11;;;;;;;6.23;4.77;;;9.60;99.90;;;;;;5053513;28;20228;-66
2023/04/20 09:35:41;;;;;;;5.23;4.77;;;10.20;99.90;;;;;;5046822;28;20193;-66
2023/04/20 09:38:14;;;;;;;7.33;5.33;;;10.50;99.90;;;;;;5051035;28;20236;-66
2023/04/20 09:40:40;;;;;;;7.43;6.17;;;10.90;99.90;;;;;;5049939;28;20194;-67
2023/04/20 09:43:18;;;;;;;6.03;5.13;;;10.60;99.90;;;;;;5053211;28;20202;-67
2023/04/20 09:45:44;;;;;;;7.73;5.57;;;10.30;99.90;;;;;;5044960;28;20182;-67
2023/04/20 09:48:14;;;;;;;6.27;4.93;;;10.30;99.90;;;;;;5047861;28;20607;-67
2023/04/20 09:50:39;;;;;;;5.37;4.53;;;10.40;99.90;;;;;;5050916;28;20182;-67
2023/04/20 09:53:05;;;;;;;6.57;4.93;;;10.10;99.90;;;;;;5053488;28;20198;-65
2023/04/20 09:55:31;;;;;;;7.10;5.23;;;10.10;99.90;;;;;;5053550;28;20261;-66
2023/04/20 09:57:58;;;;;;;13.33;5.03;;;10.10;99.90;;;;;;5053343;28;20201;-67
2023/04/20 10:00:24;;;;;;;6.60;5.30;;;10.00;99.90;;;;;;5047725;28;20186;-69
2023/04/20 10:02:50;;;;;;;4.73;4.33;;;10.10;99.90;;;;;;5034550;28;20261;-67
2023/04/20 10:05:16;;;;;;;8.37;4.93;;;10.00;99.90;;;;;;5040014;28;20229;-64
2023/04/20 10:07:42;;;;;;;6.17;4.93;;;9.90;99.90;;;;;;5051565;28;20217;-65
2023/04/20 10:10:08;;;;;;;7.17;5.43;;;10.00;99.90;;;;;;5045205;28;20195;-65
2023/04/20 10:12:46;;;;;;;6.23;5.40;;;10.30;99.90;;;;;;5044512;28;20190;-65
2023/04/20 10:15:12;;;;;;;6.53;4.87;;;10.60;99.90;;;;;;5036298;28;20197;-66
2023/04/20 10:17:38;;;;;;;8.60;4.90;;;10.90;99.90;;;;;;5032394;28;20226;-66
2023/04/20 10:20:04;;;;;;;5.60;4.53;;;10.60;99.90;;;;;;5053963;28;20197;-66
2023/04/20 10:22:34;;;;;;;5.23;4.07;;;10.70;99.90;;;;;;5052027;28;20214;-66
2023/04/20 10:25:13;;;;;;;6.77;4.07;;;10.50;99.90;;;;;;5051804;28;20247;-65
2023/04/20 10:27:39;;;;;;;4.33;3.90;;;10.50;99.90;;;;;;5049824;28;20223;-65
2023/04/20 10:30:09;;;;;;;6.07;4.40;;;10.20;99.90;;;;;;5052674;28;20182;-65
2023/04/20 10:32:35;;;;;;;6.13;3.70;;;10.00;99.90;;;;;;5051533;28;20186;-65
2023/04/20 10:35:03;;;;;;;7.23;5.33;;;10.00;99.90;;;;;;5050961;28;20185;-65
2023/04/20 10:37:30;;;;;;;6.07;5.30;;;9.90;99.90;;;;;;5050662;28;20177;-65
2023/04/20 10:39:57;;;;;;;7.33;4.43;;;9.90;99.90;;;;;;5049221;28;20183;-65
2023/04/20 10:42:22;;;;;;;6.40;4.37;;;9.90;99.90;;;;;;5044199;28;20213;-65
2023/04/20 10:44:53;;;;;;;5.13;4.50;;;10.00;99.90;;;;;;5048596;28;20523;-67
2023/04/20 10:47:33;;;;;;;5.50;4.50;;;10.10;99.90;;;;;;5051022;28;20182;-67
2023/04/20 10:50:25;;;;;;;6.17;4.60;;;10.20;99.90;;;;;;5050513;28;20181;-67
2023/04/20 10:52:50;;;;;;;5.97;4.27;;;10.20;99.90;;;;;;5046492;28;20198;-67
2023/04/20 10:55:24;;;;;;;11.07;5.00;;;10.30;99.90;;;;;;5050033;28;20650;-67
2023/04/20 10:57:50;;;;;;;4.53;4.07;;;10.00;99.90;;;;;;5051874;28;20189;-67
2023/04/20 11:00:19;;;;;;;6.27;4.53;;;10.00;99.90;;;;;;5051743;28;20174;-66
2023/04/20 11:02:49;;;;;;;6.03;4.60;;;9.90;99.90;;;;;;5052275;28;20210;-66
2023/04/20 11:05:16;;;;;;;6.63;4.50;;;10.10;99.90;;;;;;5051534;28;20261;-67
2023/04/20 11:07:58;;;;;;;4.87;4.37;;;10.20;99.90;;;;;;5042878;28;20186;-67
2023/04/20 11:10:40;;;;;;;7.30;5.10;;;10.00;99.90;;;;;;5051740;28;20178;-66
2023/04/20 11:13:06;;;;;;;5.93;5.00;;;9.90;99.90;;;;;;5043870;28;20232;-66
2023/04/20 11:15:33;;;;;;;6.77;4.70;;;10.00;99.90;;;;;;5050749;28;20170;-68
2023/04/20 11:18:10;;;;;;;5.43;4.80;;;10.30;99.90;;;;;;5050716;28;20234;-67
2023/04/20 11:20:36;;;;;;;8.33;6.07;;;10.30;99.90;;;;;;5052158;28;20193;-63
2023/04/20 11:23:04;;;;;;;7.33;5.30;;;10.20;99.90;;;;;;5046252;28;20202;-66
2023/04/20 11:25:30;;;;;;;5.30;4.77;;;10.30;99.90;;;;;;5049802;28;20663;-64
2023/04/20 11:28:08;;;;;;;5.07;4.57;;;10.20;99.90;;;;;;5051246;28;20196;-65
2023/04/20 11:30:41;;;;;;;5.53;5.00;;;9.90;99.90;;;;;;5038610;28;20193;-65
2023/04/20 11:33:07;;;;;;;6.27;4.97;;;9.80;99.90;;;;;;5047891;28;20194;-66
2023/04/20 11:35:40;;;;;;;7.13;5.30;;;9.90;99.90;;;;;;5051613;28;20244;-65
2023/04/20 11:38:06;;;;;;;5.63;4.63;;;10.00;99.90;;;;;;5051949;28;20174;-65
2023/04/20 11:40:32;;;;;;;7.27;4.37;;;10.20;99.90;;;;;;5052011;28;20186;-66
2023/04/20 11:42:59;;;;;;;5.70;4.60;;;10.40;99.90;;;;;;5048577;28;20659;-66
2023/04/20 11:45:27;;;;;;;4.83;4.30;;;10.70;99.90;;;;;;5062585;28;20208;-65
2023/04/20 11:47:53;;;;;;;5.85;4.65;;;11.00;99.90;;;;;;5078873;28;20185;-65
2023/04/20 11:50:20;;;;;;;6.90;4.72;;;11.40;99.90;;;;;;5051759;28;20190;-65
2023/04/20 11:52:46;;;;;;;6.55;4.88;;;11.20;99.90;;;;;;5051150;28;20264;-64
2023/04/20 11:55:12;;;;;;;5.40;4.53;;;11.20;99.90;;;;;;5050985;28;20294;-64
2023/04/20 11:57:38;;;;;;;5.40;4.75;;;11.40;99.90;;;;;;5047568;28;20266;-64
2023/04/20 12:00:05;;;;;;;5.47;4.90;;;11.80;99.90;;;;;;5044783;28;20269;-66
2023/04/20 12:02:31;;;;;;;4.85;4.35;;;12.00;99.90;;;;;;5054966;28;20197;-68
2023/04/20 12:04:56;;;;;;;5.95;4.65;;;11.80;99.90;;;;;;5055051;28;20259;-67
2023/04/20 12:07:22;;;;;;;5.60;4.38;;;11.40;99.90;;;;;;5051940;28;20220;-67
2023/04/20 12:09:48;;;;;;;5.55;5.00;;;11.10;99.90;;;;;;5051511;28;20221;-65
2023/04/20 12:12:14;;;;;;;5.93;4.63;;;11.00;99.90;;;;;;5051365;28;20193;-67
2023/04/20 12:14:40;;;;;;;5.37;4.87;;;11.10;99.90;;;;;;5055013;28;20542;-67
2023/04/20 12:17:05;;;;;;;7.30;5.00;;;10.80;99.90;;;;;;5053361;28;20222;-67
2023/04/20 12:19:31;;;;;;;6.50;5.13;;;10.90;99.90;;;;;;5055266;28;20635;-66
2023/04/20 12:21:57;;;;;;;5.40;4.90;;;10.90;99.90;;;;;;5055309;28;20233;-67
2023/04/20 12:24:23;;;;;;;8.68;5.13;;;11.10;99.90;;;;;;5053332;28;20206;-68
2023/04/20 12:26:49;;;;;;;5.20;4.70;;;11.20;99.90;;;;;;5037723;28;20265;-67
2023/04/20 12:29:15;;;;;;;6.72;5.28;;;11.10;99.90;;;;;;5037975;28;20270;-68
2023/04/20 12:31:41;;;;;;;6.43;5.18;;;11.10;99.90;;;;;;5043591;28;20190;-68
2023/04/20 12:34:06;;;;;;;5.30;4.57;;;11.30;99.90;;;;;;5042494;28;20197;-68
2023/04/20 12:36:33;;;;;;;6.75;5.05;;;11.30;99.90;;;;;;5050272;28;20178;-68
2023/04/20 12:39:00;;;;;;;5.95;4.93;;;11.50;99.90;;;;;;5049703;28;20182;-68
2023/04/20 12:41:26;;;;;;;7.45;5.13;;;11.50;99.90;;;;;;5033774;28;20245;-68
2023/04/20 12:43:52;;;;;;;8.40;5.28;;;11.40;99.90;;;;;;5044835;28;20634;-68
2023/04/20 12:46:18;;;;;;;6.82;4.68;;;11.30;99.90;;;;;;5056615;28;20191;-67
2023/04/20 12:48:44;;;;;;;7.35;5.72;;;11.50;99.90;;;;;;5054898;28;20208;-68
2023/04/20 12:51:11;;;;;;;8.68;5.43;;;11.20;99.90;;;;;;5051485;28;20196;-67
2023/04/20 12:53:36;;;;;;;6.63;5.20;;;11.10;99.90;;;;;;5049442;28;20185;-68